Al Khubar, Saudi Arabia
Current Conditions -  °F | °C
As of 7:00 PM on Sunday 25 Jan 2015 (Local Time) from OBBI Reporting Station
Clear Clear  
Wind Chill: 64°   Ceiling: Unl
Heat Index: 64°   Visibility: 5mi
Dew Point: 55°   Wind: 3mph
Humidity: 73%   Direction: 340°NNW
Pressure: 30.24"   Gusts: NA
Location:  26.29°N, 50.21°E
Report Text: OBBI 251600Z 34003KT 310V020 8000 NSC 18/13 Q1024 NOSIG
Loading
Personal Weather Stations






























Interactive Weather Map New forecast layout! Learn more

10-Day Weather Forecast

Advertisements
Track Severe Weather on mobile